createdAt,value
2017-10-23T00:00:44.200Z,10.52
2017-10-23T00:01:44.521Z,10.46
2017-10-23T00:02:44.169Z,10.42
2017-10-23T00:03:44.150Z,10.44
2017-10-23T00:04:44.461Z,10.52
2017-10-23T00:05:44.461Z,10.47
2017-10-23T00:06:44.091Z,10.51
2017-10-23T00:07:44.411Z,10.42
2017-10-23T00:08:44.065Z,10.47
2017-10-23T00:09:44.049Z,10.51
2017-10-23T00:10:44.033Z,10.51
2017-10-23T00:11:44.013Z,10.44
2017-10-23T00:12:44.002Z,10.52
2017-10-23T00:13:43.649Z,10.51
2017-10-23T00:14:43.961Z,10.53
2017-10-23T00:15:44.291Z,10.51
2017-10-23T00:16:43.931Z,10.53
2017-10-23T00:17:43.575Z,10.47
2017-10-23T00:18:43.891Z,10.52
2017-10-23T00:19:44.218Z,10.46
2017-10-23T00:20:43.859Z,10.53
2017-10-23T00:21:44.180Z,10.47
2017-10-23T00:22:43.833Z,10.55
2017-10-23T00:23:43.481Z,10.53
2017-10-23T00:24:43.790Z,10.52
2017-10-23T00:25:44.116Z,10.47
2017-10-23T00:26:44.105Z,10.51
2017-10-23T00:27:44.072Z,10.51
2017-10-23T00:28:43.396Z,10.55
2017-10-23T00:29:43.709Z,10.51
2017-10-23T00:30:43.694Z,10.46
2017-10-23T00:31:43.669Z,10.53
2017-10-23T00:32:43.653Z,10.47
2017-10-23T00:33:43.976Z,10.46
2017-10-23T00:34:43.627Z,10.43
2017-10-23T00:35:43.606Z,10.4
2017-10-23T00:36:43.924Z,10.46
2017-10-23T00:37:43.910Z,10.39
2017-10-23T00:38:43.908Z,10.36
2017-10-23T00:39:43.203Z,10.36
2017-10-23T00:40:43.853Z,10.36
2017-10-23T00:41:43.508Z,10.34
2017-10-23T00:42:43.154Z,10.4
2017-10-23T00:43:43.811Z,10.36
2017-10-23T00:44:43.787Z,10.34
2017-10-23T00:45:43.763Z,10.37
2017-10-23T00:46:43.427Z,10.33
2017-10-23T00:47:43.405Z,10.37
2017-10-23T00:48:43.058Z,10.33
2017-10-23T00:49:43.703Z,10.28
2017-10-23T00:50:43.353Z,10.37
2017-10-23T00:51:43.330Z,10.33
2017-10-23T00:52:42.987Z,10.43
2017-10-23T00:53:43.643Z,10.34
2017-10-23T00:54:43.285Z,10.36
2017-10-23T00:55:43.604Z,10.36
2017-10-23T00:56:42.944Z,10.37
2017-10-23T00:57:42.898Z,10.39
2017-10-23T00:58:43.559Z,10.36
2017-10-23T00:59:43.532Z,10.25
2017-10-23T01:00:43.523Z,10.28
2017-10-23T01:01:43.167Z,10.33
2017-10-23T01:02:43.148Z,10.24
2017-10-23T01:03:43.129Z,10.22
2017-10-23T01:04:43.115Z,10.26
2017-10-23T01:05:43.106Z,10.18
2017-10-23T01:06:43.076Z,10.22
2017-10-23T01:07:42.724Z,10.1
2017-10-23T01:08:43.039Z,10.1
2017-10-23T01:09:43.361Z,10.03
2017-10-23T01:10:43.335Z,10.07
2017-10-23T01:11:43.326Z,10.03
2017-10-23T01:12:43.302Z,9.97
2017-10-23T01:13:43.288Z,10
2017-10-23T01:14:42.948Z,9.97
2017-10-23T01:15:43.253Z,9.99
2017-10-23T01:16:42.914Z,9.93
2017-10-23T01:17:43.228Z,9.91
2017-10-23T01:18:42.865Z,9.91
2017-10-23T01:19:42.856Z,10
2017-10-23T01:20:42.500Z,9.94
2017-10-23T01:21:43.357Z,9.89
2017-10-23T01:22:42.476Z,9.89
2017-10-23T01:23:42.786Z,9.93
2017-10-23T01:24:43.099Z,9.93
2017-10-23T01:25:43.112Z,9.83
2017-10-23T01:26:42.730Z,9.86
2017-10-23T01:27:42.711Z,9.82
2017-10-23T01:28:42.695Z,9.73
2017-10-23T01:29:42.680Z,9.81
2017-10-23T01:30:42.994Z,9.88
2017-10-23T01:31:42.982Z,9.73
2017-10-23T01:32:42.621Z,9.85
2017-10-23T01:33:42.943Z,9.79
2017-10-23T01:34:42.593Z,9.83
2017-10-23T01:35:42.575Z,9.79
2017-10-23T01:36:42.223Z,9.71
2017-10-23T01:37:42.538Z,9.78
2017-10-23T01:38:42.866Z,9.82
2017-10-23T01:39:42.503Z,9.78
2017-10-23T01:40:42.835Z,9.73
2017-10-23T01:41:42.813Z,9.71
2017-10-23T01:42:42.504Z,9.7
2017-10-23T01:43:42.431Z,9.71
2017-10-23T01:44:42.421Z,9.71
2017-10-23T01:45:42.731Z,9.7
2017-10-23T01:46:42.045Z,9.76
2017-10-23T01:47:42.363Z,9.71
2017-10-23T01:48:42.346Z,9.71
2017-10-23T01:49:42.695Z,9.78
2017-10-23T01:50:42.318Z,9.71
2017-10-23T01:51:42.290Z,9.68
2017-10-23T01:52:42.627Z,9.75
2017-10-23T01:53:42.264Z,9.75
2017-10-23T01:54:42.238Z,9.79
2017-10-23T01:55:42.559Z,9.78
2017-10-23T01:56:42.218Z,9.73
2017-10-23T01:57:41.856Z,9.76
2017-10-23T01:58:42.549Z,9.71
2017-10-23T01:59:42.494Z,9.71
2017-10-23T02:00:42.482Z,9.83
2017-10-23T02:01:42.473Z,9.82
2017-10-23T02:02:42.107Z,9.75
2017-10-23T02:03:41.751Z,9.85
2017-10-23T02:04:42.069Z,9.79
2017-10-23T02:05:42.053Z,9.78
2017-10-23T02:06:42.037Z,9.76
2017-10-23T02:07:42.355Z,9.83
2017-10-23T02:08:41.661Z,9.79
2017-10-23T02:09:41.985Z,9.82
2017-10-23T02:10:41.633Z,9.81
2017-10-23T02:11:41.967Z,9.79
2017-10-23T02:12:41.930Z,9.82
2017-10-23T02:13:41.915Z,9.73
2017-10-23T02:14:41.903Z,9.76
2017-10-23T02:15:41.546Z,9.82
2017-10-23T02:16:41.863Z,9.82
2017-10-23T02:17:42.174Z,9.82
2017-10-23T02:18:41.829Z,9.88
2017-10-23T02:19:41.806Z,9.79
2017-10-23T02:20:41.793Z,9.79
2017-10-23T02:21:41.773Z,9.79
2017-10-23T02:22:41.754Z,9.85
2017-10-23T02:23:41.732Z,9.79
2017-10-23T02:24:42.061Z,9.85
2017-10-23T02:25:41.906Z,9.79
2017-10-23T02:26:41.685Z,9.82
2017-10-23T02:27:42.005Z,9.82
2017-10-23T02:28:41.659Z,9.81
2017-10-23T02:29:41.969Z,9.76
2017-10-23T02:30:41.286Z,9.81
2017-10-23T02:31:41.599Z,9.83
2017-10-23T02:32:41.587Z,9.82
2017-10-23T02:33:41.915Z,9.82
2017-10-23T02:34:41.546Z,9.85
2017-10-23T02:35:41.532Z,9.81
2017-10-23T02:36:41.875Z,9.85
2017-10-23T02:37:41.498Z,9.76
2017-10-23T02:38:41.819Z,9.82
2017-10-23T02:39:41.457Z,9.81
2017-10-23T02:40:41.109Z,9.81
2017-10-23T02:41:41.435Z,9.78
2017-10-23T02:42:41.414Z,9.85
2017-10-23T02:43:41.054Z,9.83
2017-10-23T02:44:41.040Z,9.83
2017-10-23T02:45:41.361Z,9.85
2017-10-23T02:46:41.344Z,9.81
2017-10-23T02:47:41.656Z,9.83
2017-10-23T02:48:41.311Z,9.78
2017-10-23T02:49:41.617Z,9.81
2017-10-23T02:50:41.614Z,9.82
2017-10-23T02:51:41.605Z,9.78
2017-10-23T02:52:41.599Z,9.82
2017-10-23T02:53:41.550Z,9.85
2017-10-23T02:54:41.204Z,9.88
2017-10-23T02:55:41.186Z,9.86
2017-10-23T02:56:41.505Z,9.86
2017-10-23T02:57:41.147Z,9.82
2017-10-23T02:58:41.470Z,9.89
2017-10-23T02:59:41.455Z,9.86
2017-10-23T03:00:41.091Z,9.94
2017-10-23T03:01:41.073Z,9.91
2017-10-23T03:02:41.062Z,9.83
2017-10-23T03:03:41.042Z,9.85
2017-10-23T03:04:41.041Z,9.89
2017-10-23T03:05:41.021Z,9.97
2017-10-23T03:06:40.652Z,9.91
2017-10-23T03:07:40.971Z,9.86
2017-10-23T03:08:40.960Z,9.91
2017-10-23T03:09:40.940Z,9.86
2017-10-23T03:10:40.588Z,9.93
2017-10-23T03:11:40.915Z,9.91
2017-10-23T03:12:40.887Z,9.94
2017-10-23T03:13:40.539Z,9.86
2017-10-23T03:14:40.513Z,10.04
2017-10-23T03:15:40.497Z,9.88
2017-10-23T03:16:40.827Z,9.89
2017-10-23T03:17:40.792Z,9.93
2017-10-23T03:18:40.446Z,9.88
2017-10-23T03:19:40.428Z,10.01
2017-10-23T03:20:40.748Z,9.93
2017-10-23T03:21:40.926Z,9.93
2017-10-23T03:22:41.045Z,9.88
2017-10-23T03:23:40.695Z,9.94
2017-10-23T03:24:40.355Z,9.91
2017-10-23T03:25:40.658Z,9.96
2017-10-23T03:26:40.308Z,10
2017-10-23T03:27:40.629Z,9.99
2017-10-23T03:28:40.944Z,9.93
2017-10-23T03:29:40.264Z,9.97
2017-10-23T03:30:40.944Z,9.96
2017-10-23T03:31:40.229Z,9.97
2017-10-23T03:32:40.558Z,10.03
2017-10-23T03:33:40.533Z,10.06
2017-10-23T03:34:40.173Z,10.03
2017-10-23T03:35:40.843Z,10.07
2017-10-23T03:36:40.479Z,9.99
2017-10-23T03:37:40.785Z,10.09
2017-10-23T03:38:40.452Z,10.04
2017-10-23T03:39:40.428Z,10.03
2017-10-23T03:40:40.734Z,10.06
2017-10-23T03:41:40.049Z,10.04
2017-10-23T03:42:40.365Z,10.15
2017-10-23T03:43:40.687Z,10.15
2017-10-23T03:44:40.664Z,10.1
2017-10-23T03:45:40.313Z,10.07
2017-10-23T03:46:39.965Z,10.06
2017-10-23T03:47:40.276Z,10.1
2017-10-23T03:48:40.262Z,10.04
2017-10-23T03:49:40.253Z,10.04
2017-10-23T03:50:40.234Z,10.14
2017-10-23T03:51:39.877Z,10.14
2017-10-23T03:52:40.535Z,10.15
2017-10-23T03:53:39.844Z,10.22
2017-10-23T03:54:40.498Z,10.18
2017-10-23T03:55:40.147Z,10.15
2017-10-23T03:56:40.490Z,10.17
2017-10-23T03:57:40.121Z,10.15
2017-10-23T03:58:39.759Z,10.19
2017-10-23T03:59:40.128Z,10.24
2017-10-23T04:00:40.053Z,10.24
2017-10-23T04:01:40.045Z,10.18
2017-10-23T04:02:40.375Z,10.17
2017-10-23T04:03:40.009Z,10.18
2017-10-23T04:04:40.006Z,10.24
2017-10-23T04:05:39.970Z,10.19
2017-10-23T04:06:40.299Z,10.21
2017-10-23T04:07:40.269Z,10.19
2017-10-23T04:08:39.917Z,10.17
2017-10-23T04:09:40.242Z,10.21
2017-10-23T04:10:39.884Z,10.21
2017-10-23T04:11:39.532Z,10.17
2017-10-23T04:12:39.853Z,10.21
2017-10-23T04:13:39.828Z,10.21
2017-10-23T04:14:40.190Z,10.19
2017-10-23T04:15:39.799Z,10.18
2017-10-23T04:16:39.789Z,10.22
2017-10-23T04:17:40.106Z,10.15
2017-10-23T04:18:39.411Z,10.32
2017-10-23T04:19:39.393Z,10.28
2017-10-23T04:20:39.709Z,10.22
2017-10-23T04:21:40.037Z,10.33
2017-10-23T04:22:39.680Z,10.33
2017-10-23T04:23:39.327Z,10.34
2017-10-23T04:24:39.975Z,10.26
2017-10-23T04:25:39.293Z,10.32
2017-10-23T04:26:39.952Z,10.24
2017-10-23T04:27:39.927Z,10.28
2017-10-23T04:28:39.909Z,10.26
2017-10-23T04:29:39.889Z,10.25
2017-10-23T04:30:39.543Z,10.26
2017-10-23T04:31:39.195Z,10.3
2017-10-23T04:32:39.506Z,10.28
2017-10-23T04:33:39.493Z,10.26
2017-10-23T04:34:39.472Z,10.3
2017-10-23T04:35:39.794Z,10.33
2017-10-23T04:36:39.785Z,10.28
2017-10-23T04:37:39.423Z,10.36
2017-10-23T04:38:39.405Z,10.21
2017-10-23T04:39:39.727Z,10.3
2017-10-23T04:40:39.370Z,10.37
2017-10-23T04:41:39.686Z,10.4
2017-10-23T04:42:39.679Z,10.36
2017-10-23T04:43:39.654Z,10.43
2017-10-23T04:44:39.304Z,10.26
2017-10-23T04:45:39.288Z,10.37
2017-10-23T04:46:39.616Z,10.34
2017-10-23T04:47:39.592Z,10.36
2017-10-23T04:48:38.897Z,10.44
2017-10-23T04:49:39.217Z,10.47
2017-10-23T04:50:39.531Z,10.4
2017-10-23T04:51:39.186Z,10.46
2017-10-23T04:52:39.160Z,10.4
2017-10-23T04:53:39.158Z,10.44
2017-10-23T04:54:39.469Z,10.4
2017-10-23T04:55:38.782Z,10.51
2017-10-23T04:56:39.094Z,10.36
2017-10-23T04:57:39.417Z,10.53
2017-10-23T04:58:39.059Z,10.4
2017-10-23T04:59:39.386Z,10.39
2017-10-23T05:00:39.364Z,10.43
2017-10-23T05:01:38.681Z,10.55
2017-10-23T05:02:39.326Z,10.47
2017-10-23T05:03:38.641Z,10.53
2017-10-23T05:04:38.617Z,10.46
2017-10-23T05:05:38.937Z,10.47
2017-10-23T05:06:38.924Z,10.59
2017-10-23T05:07:39.243Z,10.51
2017-10-23T05:08:38.892Z,10.51
2017-10-23T05:09:38.877Z,10.53
2017-10-23T05:10:38.525Z,10.52
2017-10-23T05:11:38.509Z,10.55
2017-10-23T05:12:38.841Z,10.58
2017-10-23T05:13:38.471Z,10.65
2017-10-23T05:14:38.799Z,10.52
2017-10-23T05:15:39.114Z,10.58
2017-10-23T05:16:39.089Z,10.71
2017-10-23T05:17:39.033Z,10.68
2017-10-23T05:18:38.727Z,10.65
2017-10-23T05:19:38.723Z,10.71
2017-10-23T05:20:38.352Z,10.7
2017-10-23T05:21:38.535Z,10.68
2017-10-23T05:22:38.995Z,10.73
2017-10-23T05:23:38.300Z,10.66
2017-10-23T05:24:38.617Z,10.68
2017-10-23T05:25:38.929Z,10.66
2017-10-23T05:26:38.248Z,10.62
2017-10-23T05:27:38.230Z,10.73
2017-10-23T05:28:38.219Z,10.62
2017-10-23T05:29:38.533Z,10.74
2017-10-23T05:30:38.516Z,10.66
2017-10-23T05:31:38.498Z,10.63
2017-10-23T05:32:38.484Z,10.68
2017-10-23T05:33:38.463Z,10.62
2017-10-23T05:34:38.454Z,10.65
2017-10-23T05:35:38.112Z,10.71
2017-10-23T05:36:38.756Z,10.65
2017-10-23T05:37:38.399Z,10.66
2017-10-23T05:38:38.717Z,10.7
2017-10-23T05:39:38.705Z,10.7
2017-10-23T05:40:38.679Z,10.62
2017-10-23T05:41:37.999Z,10.7
2017-10-23T05:42:37.975Z,10.74
2017-10-23T05:43:37.959Z,10.73
2017-10-23T05:44:38.610Z,10.71
2017-10-23T05:45:38.262Z,10.71
2017-10-23T05:46:37.907Z,10.71
2017-10-23T05:47:38.561Z,10.76
2017-10-23T05:48:38.213Z,10.68
2017-10-23T05:49:38.193Z,10.74
2017-10-23T05:50:37.844Z,10.74
2017-10-23T05:51:38.499Z,10.7
2017-10-23T05:52:38.478Z,10.68
2017-10-23T05:53:38.129Z,10.6
2017-10-23T05:54:37.774Z,10.66
2017-10-23T05:55:38.423Z,10.68
2017-10-23T05:56:38.410Z,10.63
2017-10-23T05:57:38.389Z,10.73
2017-10-23T05:58:37.704Z,10.68
2017-10-23T05:59:38.355Z,10.63
2017-10-23T06:00:38.364Z,10.71
2017-10-23T06:01:37.993Z,10.68
2017-10-23T06:02:37.644Z,10.73
2017-10-23T06:03:37.960Z,10.62
2017-10-23T06:04:37.939Z,10.73
2017-10-23T06:05:38.253Z,10.73
2017-10-23T06:06:38.237Z,10.71
2017-10-23T06:07:37.892Z,10.71
2017-10-23T06:08:37.871Z,10.66
2017-10-23T06:09:37.850Z,10.71
2017-10-23T06:10:38.168Z,10.73
2017-10-23T06:11:37.488Z,10.71
2017-10-23T06:12:38.140Z,10.76
2017-10-23T06:13:37.458Z,10.73
2017-10-23T06:14:37.767Z,10.74
2017-10-23T06:15:37.753Z,10.71
2017-10-23T06:16:37.399Z,10.73
2017-10-23T06:17:37.716Z,10.66
2017-10-23T06:18:37.367Z,10.71
2017-10-23T06:19:37.678Z,10.65
2017-10-23T06:20:37.337Z,10.7
2017-10-23T06:21:37.993Z,10.73
2017-10-23T06:22:38.001Z,10.76
2017-10-23T06:23:37.615Z,10.78
2017-10-23T06:24:37.931Z,10.7
2017-10-23T06:25:37.930Z,10.71
2017-10-23T06:26:37.565Z,10.78
2017-10-23T06:27:37.542Z,10.73
2017-10-23T06:28:37.532Z,10.77
2017-10-23T06:29:37.519Z,10.66
2017-10-23T06:30:37.828Z,10.71
2017-10-23T06:31:37.147Z,10.73
2017-10-23T06:32:37.471Z,10.71
2017-10-23T06:33:37.785Z,10.74
2017-10-23T06:34:37.430Z,10.71
2017-10-23T06:35:37.433Z,10.71
2017-10-23T06:36:37.739Z,10.66
2017-10-23T06:37:37.714Z,10.73
2017-10-23T06:38:37.028Z,10.76
2017-10-23T06:39:37.343Z,10.74
2017-10-23T06:40:37.662Z,10.8
2017-10-23T06:41:36.974Z,10.83
2017-10-23T06:42:37.293Z,10.8
2017-10-23T06:43:37.277Z,10.8
2017-10-23T06:44:37.593Z,10.81
2017-10-23T06:45:37.604Z,10.78
2017-10-23T06:46:36.892Z,10.78
2017-10-23T06:47:37.212Z,10.89
2017-10-23T06:48:37.202Z,10.86
2017-10-23T06:49:37.176Z,10.83
2017-10-23T06:50:37.152Z,10.89
2017-10-23T06:51:37.172Z,10.86
2017-10-23T06:52:37.181Z,10.84
2017-10-23T06:53:37.113Z,10.84
2017-10-23T06:54:36.755Z,10.84
2017-10-23T06:55:36.748Z,10.88
2017-10-23T06:56:37.392Z,10.96
2017-10-23T06:57:37.046Z,10.88
2017-10-23T06:58:37.020Z,10.89
2017-10-23T06:59:37.345Z,10.95
2017-10-23T07:00:36.992Z,10.92
2017-10-23T07:01:36.977Z,10.98
2017-10-23T07:02:36.960Z,10.95
2017-10-23T07:03:36.949Z,10.91
2017-10-23T07:04:37.283Z,10.96
2017-10-23T07:05:36.906Z,10.94
2017-10-23T07:06:36.554Z,10.95
2017-10-23T07:07:36.542Z,10.95
2017-10-23T07:08:37.192Z,10.99
2017-10-23T07:09:37.174Z,10.99
2017-10-23T07:10:36.823Z,10.96
2017-10-23T07:11:36.807Z,10.94
2017-10-23T07:12:36.794Z,10.99
2017-10-23T07:13:36.438Z,10.98
2017-10-23T07:14:36.424Z,11.01
2017-10-23T07:15:36.401Z,10.96
2017-10-23T07:16:36.731Z,10.96
2017-10-23T07:17:36.704Z,11.02
2017-10-23T07:18:36.688Z,11.01
2017-10-23T07:19:36.673Z,11.02
2017-10-23T07:20:36.999Z,11.11
2017-10-23T07:21:36.513Z,11.01
2017-10-23T07:22:36.960Z,11.03
2017-10-23T07:23:36.610Z,11.1
2017-10-23T07:24:36.594Z,11.11
2017-10-23T07:25:36.935Z,11.16
2017-10-23T07:26:36.564Z,11.14
2017-10-23T07:27:36.542Z,11.06
2017-10-23T07:28:36.857Z,11.1
2017-10-23T07:29:36.181Z,11.16
2017-10-23T07:30:36.832Z,11.17
2017-10-23T07:31:36.142Z,11.19
2017-10-23T07:32:36.129Z,11.06
2017-10-23T07:33:36.443Z,11.14
2017-10-23T07:34:36.423Z,11.16
2017-10-23T07:35:36.407Z,11.2
2017-10-23T07:36:36.724Z,11.21
2017-10-23T07:37:36.725Z,11.19
2017-10-23T07:38:36.690Z,11.19
2017-10-23T07:39:36.346Z,11.24
2017-10-23T07:40:36.332Z,11.29
2017-10-23T07:41:36.325Z,11.29
2017-10-23T07:42:36.631Z,11.29
2017-10-23T07:43:36.658Z,11.31
2017-10-23T07:44:36.264Z,11.29
2017-10-23T07:45:36.245Z,11.34
2017-10-23T07:46:36.230Z,11.31
2017-10-23T07:47:36.557Z,11.39
2017-10-23T07:48:35.862Z,11.36
2017-10-23T07:49:35.846Z,11.36
2017-10-23T07:50:36.501Z,11.43
2017-10-23T07:51:36.142Z,11.43
2017-10-23T07:52:36.135Z,11.44
2017-10-23T07:53:35.805Z,11.47
2017-10-23T07:54:36.097Z,11.49
2017-10-23T07:55:36.420Z,11.53
2017-10-23T07:56:35.740Z,11.5
2017-10-23T07:57:36.058Z,11.47
2017-10-23T07:58:36.365Z,11.54
2017-10-23T07:59:36.351Z,11.49
2017-10-23T08:00:35.670Z,11.52
2017-10-23T08:01:35.991Z,11.53
2017-10-23T08:02:35.971Z,11.57
2017-10-23T08:03:35.956Z,11.56
2017-10-23T08:04:36.278Z,11.56
2017-10-23T08:05:35.927Z,11.61
2017-10-23T08:06:35.904Z,11.62
2017-10-23T08:07:35.890Z,11.65
2017-10-23T08:08:35.874Z,11.67
2017-10-23T08:09:35.860Z,11.68
2017-10-23T08:10:35.849Z,11.68
2017-10-23T08:11:35.489Z,11.71
2017-10-23T08:12:35.476Z,11.71
2017-10-23T08:13:36.124Z,11.62
2017-10-23T08:14:36.112Z,11.8
2017-10-23T08:15:35.431Z,11.8
2017-10-23T08:16:35.752Z,11.82
2017-10-23T08:17:36.066Z,11.89
2017-10-23T08:18:35.383Z,11.83
2017-10-23T08:19:35.704Z,11.82
2017-10-23T08:20:35.356Z,11.85
2017-10-23T08:21:35.676Z,11.85
2017-10-23T08:22:35.658Z,11.8
2017-10-23T08:23:35.647Z,11.78
2017-10-23T08:24:35.959Z,11.78
2017-10-23T08:25:35.606Z,11.82
2017-10-23T08:26:35.921Z,11.89
2017-10-23T08:27:35.911Z,11.89
2017-10-23T08:28:35.563Z,11.9
2017-10-23T08:29:35.901Z,11.99
2017-10-23T08:30:35.867Z,11.94
2017-10-23T08:31:35.515Z,11.89
2017-10-23T08:32:35.836Z,12.01
2017-10-23T08:33:35.151Z,11.99
2017-10-23T08:34:35.465Z,11.94
2017-10-23T08:35:35.450Z,11.94
2017-10-23T08:36:35.802Z,12.02
2017-10-23T08:37:35.418Z,12.06
2017-10-23T08:38:35.402Z,12.05
2017-10-23T08:39:35.386Z,12.02
2017-10-23T08:40:35.704Z,12.11
2017-10-23T08:41:35.359Z,12.12
2017-10-23T08:42:35.339Z,12.15
2017-10-23T08:43:34.988Z,12.21
2017-10-23T08:44:35.644Z,12.12
2017-10-23T08:45:34.963Z,12.21
2017-10-23T08:46:35.277Z,12.16
2017-10-23T08:47:35.274Z,12.2
2017-10-23T08:48:35.583Z,12.13
2017-10-23T08:49:35.228Z,12.15
2017-10-23T08:50:35.223Z,12.16
2017-10-23T08:51:35.539Z,12.19
2017-10-23T08:52:35.194Z,12.12
2017-10-23T08:53:35.511Z,12.19
2017-10-23T08:54:35.155Z,12.21
2017-10-23T08:55:35.490Z,12.23
2017-10-23T08:56:35.460Z,12.2
2017-10-23T08:57:35.108Z,12.2
2017-10-23T08:58:35.426Z,12.19
2017-10-23T08:59:35.080Z,12.2
2017-10-23T09:00:35.060Z,12.23
2017-10-23T09:01:35.077Z,12.2
2017-10-23T09:02:35.035Z,12.24
2017-10-23T09:03:34.686Z,12.23
2017-10-23T09:04:35.004Z,12.2
2017-10-23T09:05:35.318Z,12.24
2017-10-23T09:06:35.321Z,12.26
2017-10-23T09:07:35.299Z,12.23
2017-10-23T09:08:34.946Z,12.24
2017-10-23T09:09:34.930Z,12.26
2017-10-23T09:10:35.252Z,12.23
2017-10-23T09:11:34.895Z,12.29
2017-10-23T09:12:34.889Z,12.27
2017-10-23T09:13:34.865Z,12.24
2017-10-23T09:14:34.852Z,12.24
2017-10-23T09:15:34.501Z,12.29
2017-10-23T09:16:34.830Z,12.26
2017-10-23T09:17:35.140Z,12.23
2017-10-23T09:18:34.793Z,12.23
2017-10-23T09:19:35.110Z,12.24
2017-10-23T09:20:35.104Z,12.33
2017-10-23T09:21:35.152Z,12.39
2017-10-23T09:22:34.725Z,12.44
2017-10-23T09:23:34.376Z,12.45
2017-10-23T09:24:34.697Z,12.46
2017-10-23T09:25:35.024Z,12.49
2017-10-23T09:26:34.669Z,12.33
2017-10-23T09:27:34.647Z,12.48
2017-10-23T09:28:34.635Z,12.46
2017-10-23T09:29:34.966Z,12.46
2017-10-23T09:30:34.271Z,12.48
2017-10-23T09:31:34.597Z,12.48
2017-10-23T09:32:34.576Z,12.46
2017-10-23T09:33:34.557Z,12.51
2017-10-23T09:34:34.544Z,12.46
2017-10-23T09:35:34.195Z,12.39
2017-10-23T09:36:34.175Z,12.49
2017-10-23T09:37:34.166Z,12.49
2017-10-23T09:38:34.485Z,12.46
2017-10-23T09:39:34.798Z,12.51
2017-10-23T09:40:34.476Z,12.6
2017-10-23T09:41:34.773Z,12.52
2017-10-23T09:42:34.766Z,12.57
2017-10-23T09:43:34.408Z,12.57
2017-10-23T09:44:34.407Z,12.6
2017-10-23T09:45:34.380Z,12.52
2017-10-23T09:46:34.701Z,12.64
2017-10-23T09:47:34.343Z,12.66
2017-10-23T09:48:34.328Z,12.63
2017-10-23T09:49:34.316Z,12.66
2017-10-23T09:50:34.640Z,12.66
2017-10-23T09:51:34.634Z,12.66
2017-10-23T09:52:33.940Z,12.67
2017-10-23T09:53:34.586Z,12.74
2017-10-23T09:54:34.586Z,12.75
2017-10-23T09:55:33.894Z,12.78
2017-10-23T09:56:34.213Z,12.81
2017-10-23T09:57:34.207Z,12.85
2017-10-23T09:58:33.853Z,12.97
2017-10-23T09:59:33.832Z,12.93
2017-10-23T10:00:34.156Z,12.95
2017-10-23T10:01:34.139Z,12.93
2017-10-23T10:02:34.460Z,12.96
2017-10-23T10:03:34.118Z,12.95
2017-10-23T10:04:34.104Z,12.88
2017-10-23T10:05:34.086Z,12.93
2017-10-23T10:06:34.079Z,12.93
2017-10-23T10:07:34.047Z,13
2017-10-23T10:08:34.367Z,13
2017-10-23T10:09:34.023Z,13.02
2017-10-23T10:10:34.019Z,13.09
2017-10-23T10:11:34.327Z,13.14
2017-10-23T10:12:33.978Z,13.06
2017-10-23T10:13:33.974Z,13.09
2017-10-23T10:14:33.945Z,13.11
2017-10-23T10:15:33.614Z,13.17
2017-10-23T10:16:33.584Z,13.11
2017-10-23T10:17:33.906Z,13.17
2017-10-23T10:18:33.888Z,13.25
2017-10-23T10:19:33.551Z,13.22
2017-10-23T10:20:33.533Z,13.36
2017-10-23T10:21:34.196Z,13.33
2017-10-23T10:22:33.834Z,13.41
2017-10-23T10:23:34.159Z,13.4
2017-10-23T10:24:33.806Z,13.41
2017-10-23T10:25:33.791Z,13.4
2017-10-23T10:26:34.123Z,13.4
2017-10-23T10:27:33.767Z,13.43
2017-10-23T10:28:33.754Z,13.47
2017-10-23T10:29:33.750Z,13.58
2017-10-23T10:30:33.726Z,13.49
2017-10-23T10:31:34.054Z,13.63
2017-10-23T10:32:34.042Z,13.63
2017-10-23T10:33:34.023Z,13.69
2017-10-23T10:34:34.004Z,13.81
2017-10-23T10:35:33.995Z,13.92
2017-10-23T10:36:33.643Z,14.02
2017-10-23T10:37:33.633Z,14.12
2017-10-23T10:38:33.613Z,13.94
2017-10-23T10:39:33.277Z,13.91
2017-10-23T10:40:33.259Z,13.91
2017-10-23T10:41:33.580Z,13.92
2017-10-23T10:42:33.566Z,13.94
2017-10-23T10:43:33.548Z,14.02
2017-10-23T10:44:33.539Z,13.91
2017-10-23T10:45:33.524Z,13.87
2017-10-23T10:46:33.517Z,13.79
2017-10-23T10:47:33.513Z,13.71
2017-10-23T10:48:33.824Z,13.55
2017-10-23T10:49:33.808Z,13.54
2017-10-23T10:50:33.462Z,13.44
2017-10-23T10:51:33.778Z,13.52
2017-10-23T10:52:33.770Z,13.54
2017-10-23T10:53:33.760Z,13.47
2017-10-23T10:54:33.743Z,13.43
2017-10-23T10:55:33.736Z,13.46
2017-10-23T10:56:33.047Z,13.41
2017-10-23T10:57:33.704Z,13.33
2017-10-23T10:58:33.697Z,13.4
2017-10-23T10:59:33.672Z,13.4
2017-10-23T11:00:33.328Z,13.44
2017-10-23T11:01:33.650Z,13.44
2017-10-23T11:02:33.306Z,13.41
2017-10-23T11:03:32.947Z,13.32
2017-10-23T11:04:33.270Z,13.49
2017-10-23T11:05:33.619Z,13.38
2017-10-23T11:06:33.242Z,13.37
2017-10-23T11:07:33.564Z,13.38
2017-10-23T11:08:33.218Z,13.33
2017-10-23T11:09:33.208Z,13.36
2017-10-23T11:10:33.184Z,13.37
2017-10-23T11:11:32.837Z,13.33
2017-10-23T11:12:33.491Z,13.43
2017-10-23T11:13:33.482Z,13.41
2017-10-23T11:14:33.471Z,13.33
2017-10-23T11:15:33.449Z,13.37
2017-10-23T11:16:33.101Z,13.38
2017-10-23T11:17:33.090Z,13.38
2017-10-23T11:18:33.078Z,13.33
2017-10-23T11:19:33.062Z,13.24
2017-10-23T11:20:33.045Z,13.33
2017-10-23T11:21:33.032Z,13.24
2017-10-23T11:22:33.015Z,13.33
2017-10-23T11:23:33.010Z,13.43
2017-10-23T11:24:32.995Z,13.44
2017-10-23T11:25:32.970Z,13.46
2017-10-23T11:26:33.300Z,13.58
2017-10-23T11:27:32.945Z,13.58
2017-10-23T11:28:32.603Z,13.55
2017-10-23T11:29:32.588Z,13.65
2017-10-23T11:30:32.901Z,13.71
2017-10-23T11:31:32.891Z,13.87
2017-10-23T11:32:32.873Z,13.8
2017-10-23T11:33:33.205Z,13.81
2017-10-23T11:34:32.847Z,13.79
2017-10-23T11:35:32.844Z,13.81
2017-10-23T11:36:32.487Z,13.84
2017-10-23T11:37:33.132Z,13.88
2017-10-23T11:38:32.456Z,13.95
2017-10-23T11:39:32.776Z,13.94
2017-10-23T11:40:33.307Z,13.99
2017-10-23T11:41:32.751Z,13.92
2017-10-23T11:42:32.404Z,14.04
2017-10-23T11:43:33.063Z,14.06
2017-10-23T11:44:32.717Z,14.02
2017-10-23T11:45:33.030Z,14.09
2017-10-23T11:46:32.680Z,14.04
2017-10-23T11:47:32.334Z,14.07
2017-10-23T11:48:32.655Z,14.06
2017-10-23T11:49:32.311Z,14.04
2017-10-23T11:50:32.628Z,14.09
2017-10-23T11:51:32.613Z,14.04
2017-10-23T11:52:32.267Z,14.19
2017-10-23T11:53:32.254Z,14.17
2017-10-23T11:54:32.579Z,14.07
2017-10-23T11:55:32.561Z,14.04
2017-10-23T11:56:32.547Z,14.07
2017-10-23T11:57:32.539Z,14.14
2017-10-23T11:58:32.522Z,14.12
2017-10-23T11:59:32.507Z,14.1
2017-10-23T12:00:32.162Z,14.04
2017-10-23T12:01:32.819Z,14.07
2017-10-23T12:02:32.469Z,14.1
2017-10-23T12:03:32.795Z,14.12
2017-10-23T12:04:32.775Z,14.06
2017-10-23T12:05:32.089Z,14.09
2017-10-23T12:06:32.489Z,14.04
2017-10-23T12:07:32.401Z,14.04
2017-10-23T12:08:32.727Z,14.09
2017-10-23T12:09:32.388Z,13.99
2017-10-23T12:10:32.025Z,14.1
2017-10-23T12:11:32.012Z,14.06
2017-10-23T12:12:32.670Z,14.01
2017-10-23T12:13:32.691Z,13.96
2017-10-23T12:14:32.302Z,13.99
2017-10-23T12:15:32.624Z,14.01
2017-10-23T12:16:32.617Z,13.95
2017-10-23T12:17:32.266Z,13.92
2017-10-23T12:18:32.245Z,13.99
2017-10-23T12:19:31.905Z,13.96
2017-10-23T12:20:31.889Z,13.94
2017-10-23T12:21:31.876Z,13.92
2017-10-23T12:22:32.201Z,13.94
2017-10-23T12:23:32.512Z,13.92
2017-10-23T12:24:32.165Z,13.88
2017-10-23T12:25:32.151Z,13.89
2017-10-23T12:26:32.482Z,13.88
2017-10-23T12:27:32.123Z,13.88
2017-10-23T12:28:32.444Z,13.88
2017-10-23T12:29:31.762Z,13.91
2017-10-23T12:30:31.750Z,13.94
2017-10-23T12:31:31.743Z,13.94
2017-10-23T12:32:31.754Z,13.94
2017-10-23T12:33:32.036Z,13.94
2017-10-23T12:34:32.027Z,13.95
2017-10-23T12:35:32.362Z,13.96
2017-10-23T12:36:32.008Z,13.91
2017-10-23T12:37:31.994Z,13.91
2017-10-23T12:38:32.305Z,13.96
2017-10-23T12:39:31.962Z,13.94
2017-10-23T12:40:31.961Z,13.95
2017-10-23T12:41:32.262Z,13.91
2017-10-23T12:42:31.917Z,13.92
2017-10-23T12:43:31.569Z,13.95
2017-10-23T12:44:32.222Z,14.04
2017-10-23T12:45:31.877Z,14.02
2017-10-23T12:46:32.212Z,14.09
2017-10-23T12:47:31.847Z,14.09
2017-10-23T12:48:31.835Z,14.07
2017-10-23T12:49:31.822Z,14.04
2017-10-23T12:50:32.144Z,14.04
2017-10-23T12:51:32.140Z,14.13
2017-10-23T12:52:32.145Z,14.09
2017-10-23T12:53:31.766Z,14.02
2017-10-23T12:54:32.078Z,14.14
2017-10-23T12:55:32.099Z,14.09
2017-10-23T12:56:31.389Z,14.09
2017-10-23T12:57:31.381Z,14.1
2017-10-23T12:58:32.035Z,14.12
2017-10-23T12:59:31.687Z,14.16